sensor_id;sensor_type;location;lat;lon;timestamp;pressure;altitude;pressure_sealevel;temperature;humidity
13312;BME280;34033;48.672;9.376;2023-04-28T00:02:10;98373.59;;;14.31;60.38
13312;BME280;34033;48.672;9.376;2023-04-28T00:04:36;98372.84;;;14.27;60.65
13312;BME280;34033;48.672;9.376;2023-04-28T00:07:01;98371.31;;;14.18;60.99
13312;BME280;34033;48.672;9.376;2023-04-28T00:09:26;98364.09;;;14.17;60.80
13312;BME280;34033;48.672;9.376;2023-04-28T00:11:52;98366.44;;;14.23;61.15
13312;BME280;34033;48.672;9.376;2023-04-28T00:14:17;98356.00;;;14.23;60.59
13312;BME280;34033;48.672;9.376;2023-04-28T00:16:42;98350.81;;;14.22;60.36
13312;BME280;34033;48.672;9.376;2023-04-28T00:19:08;98354.84;;;14.20;60.72
13312;BME280;34033;48.672;9.376;2023-04-28T00:21:33;98357.25;;;14.18;61.11
13312;BME280;34033;48.672;9.376;2023-04-28T00:23:58;98351.28;;;14.13;61.06
13312;BME280;34033;48.672;9.376;2023-04-28T00:26:24;98334.47;;;14.09;61.25
13312;BME280;34033;48.672;9.376;2023-04-28T00:28:50;98327.28;;;14.05;61.86
13312;BME280;34033;48.672;9.376;2023-04-28T00:31:15;98335.28;;;14.06;62.31
13312;BME280;34033;48.672;9.376;2023-04-28T00:33:41;98326.84;;;14.06;61.87
13312;BME280;34033;48.672;9.376;2023-04-28T00:36:07;98324.88;;;14.03;62.16
13312;BME280;34033;48.672;9.376;2023-04-28T00:38:33;98319.72;;;13.98;62.04
13312;BME280;34033;48.672;9.376;2023-04-28T00:40:58;98330.50;;;14.03;62.59
13312;BME280;34033;48.672;9.376;2023-04-28T00:43:24;98322.47;;;14.05;62.66
13312;BME280;34033;48.672;9.376;2023-04-28T00:45:49;98333.25;;;14.10;63.07
13312;BME280;34033;48.672;9.376;2023-04-28T00:48:16;98328.84;;;14.09;62.69
13312;BME280;34033;48.672;9.376;2023-04-28T00:50:43;98316.00;;;14.08;62.74
13312;BME280;34033;48.672;9.376;2023-04-28T00:53:09;98316.00;;;14.08;62.64
13312;BME280;34033;48.672;9.376;2023-04-28T00:55:36;98319.56;;;14.12;63.06
13312;BME280;34033;48.672;9.376;2023-04-28T00:58:01;98325.63;;;14.11;62.83
13312;BME280;34033;48.672;9.376;2023-04-28T01:00:27;98324.44;;;14.08;62.93
13312;BME280;34033;48.672;9.376;2023-04-28T01:02:52;98316.78;;;14.09;62.75
13312;BME280;34033;48.672;9.376;2023-04-28T01:05:19;98316.03;;;14.05;63.08
13312;BME280;34033;48.672;9.376;2023-04-28T01:07:45;98313.22;;;14.05;63.09
13312;BME280;34033;48.672;9.376;2023-04-28T01:10:10;98311.63;;;14.04;63.31
13312;BME280;34033;48.672;9.376;2023-04-28T01:12:35;98297.56;;;14.04;64.01
13312;BME280;34033;48.672;9.376;2023-04-28T01:15:01;98304.41;;;14.03;63.57
13312;BME280;34033;48.672;9.376;2023-04-28T01:17:26;98303.22;;;14.00;63.87
13312;BME280;34033;48.672;9.376;2023-04-28T01:19:52;98305.25;;;14.00;64.35
13312;BME280;34033;48.672;9.376;2023-04-28T01:22:17;98300.34;;;14.07;64.45
13312;BME280;34033;48.672;9.376;2023-04-28T01:24:43;98301.88;;;14.12;63.81
13312;BME280;34033;48.672;9.376;2023-04-28T01:27:08;98308.31;;;14.12;63.47
13312;BME280;34033;48.672;9.376;2023-04-28T01:29:33;98297.53;;;14.07;63.23
13312;BME280;34033;48.672;9.376;2023-04-28T01:31:59;98301.88;;;14.12;62.68
13312;BME280;34033;48.672;9.376;2023-04-28T01:34:24;98295.84;;;14.13;62.43
13312;BME280;34033;48.672;9.376;2023-04-28T01:36:50;98287.84;;;14.12;62.96
13312;BME280;34033;48.672;9.376;2023-04-28T01:39:16;98289.50;;;14.09;62.76
13312;BME280;34033;48.672;9.376;2023-04-28T01:41:41;98291.91;;;14.07;62.88
13312;BME280;34033;48.672;9.376;2023-04-28T01:44:07;98297.50;;;14.11;63.23
13312;BME280;34033;48.672;9.376;2023-04-28T01:46:33;98285.06;;;14.08;62.83
13312;BME280;34033;48.672;9.376;2023-04-28T01:48:59;98291.50;;;14.09;63.18
13312;BME280;34033;48.672;9.376;2023-04-28T01:51:24;98283.13;;;14.05;63.16
13312;BME280;34033;48.672;9.376;2023-04-28T01:53:51;98281.88;;;14.06;63.31
13312;BME280;34033;48.672;9.376;2023-04-28T01:56:28;98279.09;;;14.03;63.18
13312;BME280;34033;48.672;9.376;2023-04-28T01:58:53;98278.34;;;13.99;63.43
13312;BME280;34033;48.672;9.376;2023-04-28T02:01:19;98278.81;;;13.90;64.18
13312;BME280;34033;48.672;9.376;2023-04-28T02:03:44;98263.97;;;13.90;64.28
13312;BME280;34033;48.672;9.376;2023-04-28T02:06:09;98266.00;;;13.89;63.93
13312;BME280;34033;48.672;9.376;2023-04-28T02:08:35;98272.00;;;13.91;63.89
13312;BME280;34033;48.672;9.376;2023-04-28T02:11:00;98279.19;;;13.96;63.91
13312;BME280;34033;48.672;9.376;2023-04-28T02:13:27;98279.50;;;14.01;63.86
13312;BME280;34033;48.672;9.376;2023-04-28T02:15:53;98273.91;;;14.01;63.68
13312;BME280;34033;48.672;9.376;2023-04-28T02:18:18;98274.34;;;14.00;64.12
13312;BME280;34033;48.672;9.376;2023-04-28T02:20:43;98267.47;;;14.01;63.58
13312;BME280;34033;48.672;9.376;2023-04-28T02:23:09;98264.25;;;14.02;63.91
13312;BME280;34033;48.672;9.376;2023-04-28T02:25:35;98245.00;;;14.01;64.08
13312;BME280;34033;48.672;9.376;2023-04-28T02:28:01;98244.63;;;13.99;64.04
13312;BME280;34033;48.672;9.376;2023-04-28T02:30:27;98244.66;;;13.95;63.77
13312;BME280;34033;48.672;9.376;2023-04-28T02:32:52;98247.84;;;13.97;64.03
13312;BME280;34033;48.672;9.376;2023-04-28T02:35:17;98257.88;;;13.98;63.74
13312;BME280;34033;48.672;9.376;2023-04-28T02:37:43;98257.44;;;14.03;63.88
13312;BME280;34033;48.672;9.376;2023-04-28T02:40:08;98245.34;;;14.06;64.01
13312;BME280;34033;48.672;9.376;2023-04-28T02:42:34;98246.13;;;14.07;63.80
13312;BME280;34033;48.672;9.376;2023-04-28T02:44:59;98252.19;;;14.05;64.03
13312;BME280;34033;48.672;9.376;2023-04-28T02:47:24;98249.38;;;14.05;64.02
13312;BME280;34033;48.672;9.376;2023-04-28T02:49:50;98245.34;;;14.06;64.11
13312;BME280;34033;48.672;9.376;2023-04-28T02:52:15;98239.72;;;14.06;64.23
13312;BME280;34033;48.672;9.376;2023-04-28T02:54:40;98246.13;;;14.07;64.45
13312;BME280;34033;48.672;9.376;2023-04-28T02:57:06;98245.72;;;14.08;64.11
13312;BME280;34033;48.672;9.376;2023-04-28T02:59:31;98240.94;;;14.05;64.50
13312;BME280;34033;48.672;9.376;2023-04-28T03:01:56;98239.75;;;14.03;64.71
13312;BME280;34033;48.672;9.376;2023-04-28T03:04:22;98250.63;;;14.01;65.06
13312;BME280;34033;48.672;9.376;2023-04-28T03:06:47;98237.00;;;13.99;64.92
13312;BME280;34033;48.672;9.376;2023-04-28T03:09:13;98238.16;;;14.02;64.82
13312;BME280;34033;48.672;9.376;2023-04-28T03:11:38;98240.16;;;14.01;64.97
13312;BME280;34033;48.672;9.376;2023-04-28T03:14:04;98237.00;;;13.99;64.87
13312;BME280;34033;48.672;9.376;2023-04-28T03:16:29;98243.84;;;13.98;65.10
13312;BME280;34033;48.672;9.376;2023-04-28T03:18:54;98247.00;;;14.00;64.61
13312;BME280;34033;48.672;9.376;2023-04-28T03:21:20;98242.63;;;13.99;65.35
13312;BME280;34033;48.672;9.376;2023-04-28T03:23:45;98243.03;;;13.98;64.82
13312;BME280;34033;48.672;9.376;2023-04-28T03:26:11;98238.22;;;13.98;64.87
13312;BME280;34033;48.672;9.376;2023-04-28T03:28:36;98243.41;;;14.00;65.09
13312;BME280;34033;48.672;9.376;2023-04-28T03:31:01;98245.44;;;13.99;65.55
13312;BME280;34033;48.672;9.376;2023-04-28T03:33:27;98232.63;;;13.95;66.12
13312;BME280;34033;48.672;9.376;2023-04-28T03:35:53;98237.06;;;13.92;66.44
13312;BME280;34033;48.672;9.376;2023-04-28T03:38:19;98243.97;;;13.84;66.77
13312;BME280;34033;48.672;9.376;2023-04-28T03:40:44;98240.78;;;13.82;67.11
13312;BME280;34033;48.672;9.376;2023-04-28T03:43:10;98239.94;;;13.85;66.78
13312;BME280;34033;48.672;9.376;2023-04-28T03:45:35;98233.47;;;13.92;66.02
13312;BME280;34033;48.672;9.376;2023-04-28T03:48:00;98236.69;;;13.90;66.56
13312;BME280;34033;48.672;9.376;2023-04-28T03:50:26;98243.91;;;13.91;66.54
13312;BME280;34033;48.672;9.376;2023-04-28T03:52:51;98244.28;;;13.93;66.74
13312;BME280;34033;48.672;9.376;2023-04-28T03:55:16;98227.03;;;13.95;67.13
13312;BME280;34033;48.672;9.376;2023-04-28T03:57:42;98230.19;;;13.97;67.45
13312;BME280;34033;48.672;9.376;2023-04-28T04:00:08;98234.19;;;13.99;67.83
13312;BME280;34033;48.672;9.376;2023-04-28T04:02:34;98233.38;;;13.99;67.15
13312;BME280;34033;48.672;9.376;2023-04-28T04:04:59;98231.84;;;13.91;67.42
13312;BME280;34033;48.672;9.376;2023-04-28T04:07:25;98228.25;;;13.90;67.63
13312;BME280;34033;48.672;9.376;2023-04-28T04:09:50;98236.69;;;13.90;67.80
13312;BME280;34033;48.672;9.376;2023-04-28T04:12:16;98234.66;;;13.91;67.66
13312;BME280;34033;48.672;9.376;2023-04-28T04:14:41;98224.63;;;13.93;67.62
13312;BME280;34033;48.672;9.376;2023-04-28T04:17:07;98223.03;;;13.92;67.15
13312;BME280;34033;48.672;9.376;2023-04-28T04:19:33;98225.50;;;13.87;67.30
13312;BME280;34033;48.672;9.376;2023-04-28T04:21:58;98219.06;;;13.86;68.12
13312;BME280;34033;48.672;9.376;2023-04-28T04:24:23;98220.66;;;13.87;67.80
13312;BME280;34033;48.672;9.376;2023-04-28T04:26:49;98217.44;;;13.89;67.76
13312;BME280;34033;48.672;9.376;2023-04-28T04:29:14;98221.41;;;13.91;67.61
13312;BME280;34033;48.672;9.376;2023-04-28T04:31:39;98212.56;;;13.93;67.95
13312;BME280;34033;48.672;9.376;2023-04-28T04:34:05;98213.38;;;13.93;67.75
13312;BME280;34033;48.672;9.376;2023-04-28T04:36:31;98215.78;;;13.95;67.69
13312;BME280;34033;48.672;9.376;2023-04-28T04:38:57;98209.72;;;14.30;69.64
13312;BME280;34033;48.672;9.376;2023-04-28T04:41:22;98204.97;;;14.24;67.88
13312;BME280;34033;48.672;9.376;2023-04-28T04:43:47;98205.91;;;14.13;67.45
13312;BME280;34033;48.672;9.376;2023-04-28T04:46:13;98198.75;;;14.09;66.96
13312;BME280;34033;48.672;9.376;2023-04-28T04:48:38;98208.44;;;14.04;67.78
13312;BME280;34033;48.672;9.376;2023-04-28T04:51:04;98209.72;;;13.96;67.90
13312;BME280;34033;48.672;9.376;2023-04-28T04:53:30;98220.97;;;13.96;68.57
13312;BME280;34033;48.672;9.376;2023-04-28T04:55:55;98221.81;;;13.93;68.30
13312;BME280;34033;48.672;9.376;2023-04-28T04:58:21;98222.56;;;13.97;68.54
13312;BME280;34033;48.672;9.376;2023-04-28T05:00:46;98227.31;;;14.00;68.76
13312;BME280;34033;48.672;9.376;2023-04-28T05:03:11;98226.56;;;14.00;69.47
13312;BME280;34033;48.672;9.376;2023-04-28T05:05:37;98220.13;;;13.99;70.09
13312;BME280;34033;48.672;9.376;2023-04-28T05:08:02;98217.28;;;14.03;71.98
13312;BME280;34033;48.672;9.376;2023-04-28T05:10:28;98221.16;;;14.12;71.07
13312;BME280;34033;48.672;9.376;2023-04-28T05:12:53;98225.16;;;14.15;70.69
13312;BME280;34033;48.672;9.376;2023-04-28T05:15:18;98207.56;;;14.11;71.01
13312;BME280;34033;48.672;9.376;2023-04-28T05:17:44;98221.16;;;14.12;70.97
13312;BME280;34033;48.672;9.376;2023-04-28T05:20:09;98216.31;;;14.16;71.38
13312;BME280;34033;48.672;9.376;2023-04-28T05:22:35;98220.22;;;14.26;71.37
13312;BME280;34033;48.672;9.376;2023-04-28T05:25:00;98215.72;;;14.32;72.00
13312;BME280;34033;48.672;9.376;2023-04-28T05:27:25;98208.03;;;14.36;71.53
13312;BME280;34033;48.672;9.376;2023-04-28T05:29:51;98213.28;;;14.34;72.14
13312;BME280;34033;48.672;9.376;2023-04-28T05:32:16;98221.28;;;14.36;72.34
13312;BME280;34033;48.672;9.376;2023-04-28T05:34:42;98225.31;;;14.35;72.70
13312;BME280;34033;48.672;9.376;2023-04-28T05:37:07;98225.31;;;14.38;72.57
13312;BME280;34033;48.672;9.376;2023-04-28T05:39:32;98219.69;;;14.35;73.12
13312;BME280;34033;48.672;9.376;2023-04-28T05:41:57;98221.72;;;14.34;73.10
13312;BME280;34033;48.672;9.376;2023-04-28T05:44:23;98223.78;;;14.30;73.55
13312;BME280;34033;48.672;9.376;2023-04-28T05:46:48;98222.97;;;14.30;74.22
13312;BME280;34033;48.672;9.376;2023-04-28T05:49:14;98213.78;;;14.26;74.44
13312;BME280;34033;48.672;9.376;2023-04-28T05:51:40;98225.09;;;14.22;74.55
13312;BME280;34033;48.672;9.376;2023-04-28T05:54:05;98215.88;;;14.18;74.94
13312;BME280;34033;48.672;9.376;2023-04-28T05:56:31;98214.34;;;14.13;75.63
13312;BME280;34033;48.672;9.376;2023-04-28T05:58:56;98220.38;;;14.12;75.78
13312;BME280;34033;48.672;9.376;2023-04-28T06:01:22;98224.78;;;14.13;76.62
13312;BME280;34033;48.672;9.376;2023-04-28T06:03:48;98224.44;;;14.07;76.81
13312;BME280;34033;48.672;9.376;2023-04-28T06:06:13;98226.47;;;14.07;76.81
13312;BME280;34033;48.672;9.376;2023-04-28T06:08:38;98218.88;;;14.04;77.38
13312;BME280;34033;48.672;9.376;2023-04-28T06:11:04;98220.88;;;14.03;77.17
13312;BME280;34033;48.672;9.376;2023-04-28T06:13:29;98215.53;;;14.16;77.92
13312;BME280;34033;48.672;9.376;2023-04-28T06:15:55;98221.09;;;14.19;77.20
13312;BME280;34033;48.672;9.376;2023-04-28T06:18:20;98207.44;;;14.18;77.23
13312;BME280;34033;48.672;9.376;2023-04-28T06:20:47;98215.47;;;14.19;76.77
13312;BME280;34033;48.672;9.376;2023-04-28T06:23:13;98206.66;;;14.17;77.14
13312;BME280;34033;48.672;9.376;2023-04-28T06:25:38;98214.72;;;14.15;77.01
13312;BME280;34033;48.672;9.376;2023-04-28T06:28:03;98208.31;;;14.15;78.00
13312;BME280;34033;48.672;9.376;2023-04-28T06:30:30;98212.75;;;14.12;78.03
13312;BME280;34033;48.672;9.376;2023-04-28T06:32:55;98208.31;;;14.15;77.85
13312;BME280;34033;48.672;9.376;2023-04-28T06:35:22;98204.28;;;14.16;77.71
13312;BME280;34033;48.672;9.376;2023-04-28T06:37:47;98193.78;;;14.20;78.49
13312;BME280;34033;48.672;9.376;2023-04-28T06:40:12;98183.34;;;14.20;79.05
13312;BME280;34033;48.672;9.376;2023-04-28T06:42:38;98190.50;;;14.25;78.75
13312;BME280;34033;48.672;9.376;2023-04-28T06:45:03;98184.28;;;14.71;80.06
13312;BME280;34033;48.672;9.376;2023-04-28T06:47:29;98177.97;;;15.64;74.98
13312;BME280;34033;48.672;9.376;2023-04-28T06:49:54;98181.56;;;16.43;70.24
13312;BME280;34033;48.672;9.376;2023-04-28T06:52:20;98173.03;;;17.02;66.83
13312;BME280;34033;48.672;9.376;2023-04-28T06:54:48;98178.56;;;17.55;64.33
13312;BME280;34033;48.672;9.376;2023-04-28T06:57:14;98177.06;;;17.66;64.15
13312;BME280;34033;48.672;9.376;2023-04-28T06:59:40;98182.03;;;17.30;65.08
13312;BME280;34033;48.672;9.376;2023-04-28T07:02:08;98176.25;;;16.85;66.24
13312;BME280;34033;48.672;9.376;2023-04-28T07:04:33;98175.09;;;16.46;67.84
13312;BME280;34033;48.672;9.376;2023-04-28T07:06:59;98169.66;;;16.16;69.39
13312;BME280;34033;48.672;9.376;2023-04-28T07:09:24;98176.13;;;15.97;70.73
13312;BME280;34033;48.672;9.376;2023-04-28T07:11:49;98167.69;;;15.73;71.60
13312;BME280;34033;48.672;9.376;2023-04-28T07:14:15;98166.88;;;15.53;72.26
13312;BME280;34033;48.672;9.376;2023-04-28T07:16:40;98167.09;;;15.39;73.05
13312;BME280;34033;48.672;9.376;2023-04-28T07:19:06;98165.63;;;15.31;73.85
13312;BME280;34033;48.672;9.376;2023-04-28T07:21:31;98165.69;;;15.27;74.18
13312;BME280;34033;48.672;9.376;2023-04-28T07:23:56;98166.09;;;15.02;75.02
13312;BME280;34033;48.672;9.376;2023-04-28T07:26:22;98161.03;;;14.94;75.70
13312;BME280;34033;48.672;9.376;2023-04-28T07:28:48;98165.00;;;14.96;76.36
13312;BME280;34033;48.672;9.376;2023-04-28T07:31:13;98164.09;;;15.03;76.59
13312;BME280;34033;48.672;9.376;2023-04-28T07:33:38;98157.25;;;15.04;76.64
13312;BME280;34033;48.672;9.376;2023-04-28T07:36:04;98150.81;;;15.03;76.49
13312;BME280;34033;48.672;9.376;2023-04-28T07:38:30;98149.09;;;15.10;76.42
13312;BME280;34033;48.672;9.376;2023-04-28T07:40:55;98155.47;;;15.14;76.10
13312;BME280;34033;48.672;9.376;2023-04-28T07:43:21;98151.78;;;15.17;76.34
13312;BME280;34033;48.672;9.376;2023-04-28T07:45:46;98150.88;;;15.23;76.41
13312;BME280;34033;48.672;9.376;2023-04-28T07:48:14;98156.78;;;15.32;76.14
13312;BME280;34033;48.672;9.376;2023-04-28T07:50:39;98151.91;;;15.33;75.98
13312;BME280;34033;48.672;9.376;2023-04-28T07:53:05;98149.53;;;15.31;76.11
13312;BME280;34033;48.672;9.376;2023-04-28T07:55:30;98156.69;;;15.36;76.09
13312;BME280;34033;48.672;9.376;2023-04-28T07:57:55;98152.59;;;15.40;76.26
13312;BME280;34033;48.672;9.376;2023-04-28T08:00:23;98154.72;;;15.33;76.33
13312;BME280;34033;48.672;9.376;2023-04-28T08:02:48;98153.56;;;15.30;76.70
13312;BME280;34033;48.672;9.376;2023-04-28T08:05:15;98155.28;;;15.24;77.11
13312;BME280;34033;48.672;9.376;2023-04-28T08:07:41;98156.44;;;15.50;76.19
13312;BME280;34033;48.672;9.376;2023-04-28T08:10:10;98152.63;;;15.60;75.94
13312;BME280;34033;48.672;9.376;2023-04-28T08:12:36;98154.75;;;15.56;76.15
13312;BME280;34033;48.672;9.376;2023-04-28T08:15:01;98149.91;;;15.57;76.26
13312;BME280;34033;48.672;9.376;2023-04-28T08:17:28;98169.28;;;15.55;76.95
13312;BME280;34033;48.672;9.376;2023-04-28T08:19:53;98184.50;;;15.57;77.01
13312;BME280;34033;48.672;9.376;2023-04-28T08:22:18;98185.28;;;15.81;75.88
13312;BME280;34033;48.672;9.376;2023-04-28T08:24:44;98187.44;;;15.73;76.38
13312;BME280;34033;48.672;9.376;2023-04-28T08:27:09;98181.19;;;15.62;77.13
13312;BME280;34033;48.672;9.376;2023-04-28T08:29:35;98190.22;;;15.50;77.66
13312;BME280;34033;48.672;9.376;2023-04-28T08:32:00;98188.06;;;15.38;78.69
13312;BME280;34033;48.672;9.376;2023-04-28T08:34:26;98174.50;;;15.29;79.14
13312;BME280;34033;48.672;9.376;2023-04-28T08:36:52;98192.31;;;15.23;79.89
13312;BME280;34033;48.672;9.376;2023-04-28T08:39:17;98189.56;;;15.19;80.54
13312;BME280;34033;48.672;9.376;2023-04-28T08:41:44;98192.00;;;15.17;81.20
13312;BME280;34033;48.672;9.376;2023-04-28T08:44:10;98194.41;;;15.19;81.53
13312;BME280;34033;48.672;9.376;2023-04-28T08:46:43;98194.78;;;15.21;81.38
13312;BME280;34033;48.672;9.376;2023-04-28T08:49:14;98198.38;;;15.21;81.93
13312;BME280;34033;48.672;9.376;2023-04-28T08:51:45;98201.63;;;15.20;81.68
13312;BME280;34033;48.672;9.376;2023-04-28T08:54:13;98205.09;;;15.27;82.47
13312;BME280;34033;48.672;9.376;2023-04-28T08:56:39;98202.59;;;15.33;82.57
13312;BME280;34033;48.672;9.376;2023-04-28T08:59:09;98197.28;;;15.38;82.88
13312;BME280;34033;48.672;9.376;2023-04-28T09:01:35;98209.66;;;15.44;82.97
13312;BME280;34033;48.672;9.376;2023-04-28T09:04:01;98208.38;;;15.49;83.18
13312;BME280;34033;48.672;9.376;2023-04-28T09:06:31;98203.50;;;15.53;83.44
13312;BME280;34033;48.672;9.376;2023-04-28T09:09:17;98206.31;;;15.53;83.28
13312;BME280;34033;48.672;9.376;2023-04-28T09:11:56;98218.38;;;15.54;83.20
13312;BME280;34033;48.672;9.376;2023-04-28T09:14:24;98215.25;;;15.48;83.29
13312;BME280;34033;48.672;9.376;2023-04-28T09:16:50;98220.13;;;15.44;83.95
13312;BME280;34033;48.672;9.376;2023-04-28T09:19:16;98219.38;;;15.40;84.87
13312;BME280;34033;48.672;9.376;2023-04-28T09:21:55;98220.41;;;15.53;84.58
13312;BME280;34033;48.672;9.376;2023-04-28T09:25:09;98223.88;;;15.61;84.79
13312;BME280;34033;48.672;9.376;2023-04-28T09:27:26;98222.53;;;15.69;84.82
13312;BME280;34033;48.672;9.376;2023-04-28T09:29:52;98228.84;;;15.76;84.83
13312;BME280;34033;48.672;9.376;2023-04-28T09:32:22;98225.47;;;15.85;84.78
13312;BME280;34033;48.672;9.376;2023-04-28T09:34:52;98225.75;;;15.91;84.47
13312;BME280;34033;48.672;9.376;2023-04-28T09:37:24;98231.28;;;15.98;84.79
13312;BME280;34033;48.672;9.376;2023-04-28T09:39:52;98228.81;;;16.00;84.49
13312;BME280;34033;48.672;9.376;2023-04-28T09:45:06;98235.31;;;15.97;85.21
13312;BME280;34033;48.672;9.376;2023-04-28T09:47:34;98237.84;;;15.91;85.40
13312;BME280;34033;48.672;9.376;2023-04-28T09:50:02;98233.84;;;15.89;86.03
13312;BME280;34033;48.672;9.376;2023-04-28T09:52:27;98225.69;;;15.94;86.29
13312;BME280;34033;48.672;9.376;2023-04-28T09:54:55;98227.16;;;16.02;86.43
13312;BME280;34033;48.672;9.376;2023-04-28T09:57:21;98227.66;;;16.17;86.50
13312;BME280;34033;48.672;9.376;2023-04-28T09:59:51;98222.97;;;16.30;85.60
13312;BME280;34033;48.672;9.376;2023-04-28T10:02:19;98226.28;;;16.45;85.30
13312;BME280;34033;48.672;9.376;2023-04-28T10:04:48;98220.50;;;16.52;85.25
13312;BME280;34033;48.672;9.376;2023-04-28T10:07:15;98223.13;;;16.62;85.37
13312;BME280;34033;48.672;9.376;2023-04-28T10:09:45;98218.25;;;16.83;84.37
13312;BME280;34033;48.672;9.376;2023-04-28T10:12:21;98218.47;;;17.08;83.62
13312;BME280;34033;48.672;9.376;2023-04-28T10:14:47;98216.72;;;17.30;83.58
13312;BME280;34033;48.672;9.376;2023-04-28T10:17:20;98215.66;;;17.40;84.57
13312;BME280;34033;48.672;9.376;2023-04-28T10:19:48;98206.81;;;17.38;85.09
13312;BME280;34033;48.672;9.376;2023-04-28T10:27:37;98212.22;;;17.49;83.94
13312;BME280;34033;48.672;9.376;2023-04-28T10:30:14;98209.38;;;17.49;83.80
13312;BME280;34033;48.672;9.376;2023-04-28T10:32:40;98194.56;;;17.29;85.02
13312;BME280;34033;48.672;9.376;2023-04-28T10:38:02;98201.53;;;17.40;84.75
13312;BME280;34033;48.672;9.376;2023-04-28T10:43:03;98202.06;;;17.35;84.01
13312;BME280;34033;48.672;9.376;2023-04-28T10:48:12;98193.50;;;17.39;84.85
13312;BME280;34033;48.672;9.376;2023-04-28T10:58:34;98208.41;;;17.39;86.18
13312;BME280;34033;48.672;9.376;2023-04-28T11:03:53;98208.28;;;17.63;85.87
13312;BME280;34033;48.672;9.376;2023-04-28T11:06:36;98212.31;;;17.62;84.84
13312;BME280;34033;48.672;9.376;2023-04-28T11:12:24;98207.31;;;17.98;84.89
13312;BME280;34033;48.672;9.376;2023-04-28T11:16:54;98206.00;;;18.44;83.86
13312;BME280;34033;48.672;9.376;2023-04-28T11:19:22;98210.59;;;18.54;82.47
13312;BME280;34033;48.672;9.376;2023-04-28T11:21:49;98200.06;;;18.55;81.84
13312;BME280;34033;48.672;9.376;2023-04-28T11:24:15;98201.34;;;18.79;81.13
13312;BME280;34033;48.672;9.376;2023-04-28T11:26:43;98200.91;;;19.06;80.34
13312;BME280;34033;48.672;9.376;2023-04-28T11:29:09;98199.56;;;19.23;78.18
13312;BME280;34033;48.672;9.376;2023-04-28T11:31:36;98201.91;;;19.25;77.07
13312;BME280;34033;48.672;9.376;2023-04-28T11:34:11;98193.63;;;19.30;77.11
13312;BME280;34033;48.672;9.376;2023-04-28T11:36:39;98194.69;;;19.11;77.44
13312;BME280;34033;48.672;9.376;2023-04-28T11:39:09;98208.41;;;19.12;76.17
13312;BME280;34033;48.672;9.376;2023-04-28T11:41:35;98207.81;;;19.05;76.83
13312;BME280;34033;48.672;9.376;2023-04-28T11:44:17;98199.88;;;18.87;76.84
13312;BME280;34033;48.672;9.376;2023-04-28T11:46:47;98200.78;;;18.71;77.85
13312;BME280;34033;48.672;9.376;2023-04-28T11:49:16;98204.59;;;18.65;78.57
13312;BME280;34033;48.672;9.376;2023-04-28T11:51:42;98187.63;;;18.65;78.87
13312;BME280;34033;48.672;9.376;2023-04-28T11:54:10;98196.78;;;18.69;79.10
13312;BME280;34033;48.672;9.376;2023-04-28T11:56:39;98193.41;;;18.87;78.45
13312;BME280;34033;48.672;9.376;2023-04-28T11:59:08;98198.53;;;18.79;77.03
13312;BME280;34033;48.672;9.376;2023-04-28T12:01:47;98189.94;;;18.95;77.06
13312;BME280;34033;48.672;9.376;2023-04-28T12:04:13;98193.78;;;19.01;77.19
13312;BME280;34033;48.672;9.376;2023-04-28T12:06:39;98178.13;;;19.09;76.84
13312;BME280;34033;48.672;9.376;2023-04-28T12:09:15;98175.97;;;19.13;75.90
13312;BME280;34033;48.672;9.376;2023-04-28T12:11:55;98180.84;;;19.26;75.87
13312;BME280;34033;48.672;9.376;2023-04-28T12:14:21;98179.94;;;19.29;75.45
13312;BME280;34033;48.672;9.376;2023-04-28T12:16:46;98180.16;;;19.22;75.20
13312;BME280;34033;48.672;9.376;2023-04-28T12:19:13;98185.16;;;19.17;75.02
13312;BME280;34033;48.672;9.376;2023-04-28T12:21:40;98179.38;;;19.08;75.43
13312;BME280;34033;48.672;9.376;2023-04-28T12:24:14;98174.06;;;18.98;76.55
13312;BME280;34033;48.672;9.376;2023-04-28T12:26:39;98185.50;;;18.94;77.36
13312;BME280;34033;48.672;9.376;2023-04-28T12:29:05;98184.59;;;18.85;78.15
13312;BME280;34033;48.672;9.376;2023-04-28T12:31:30;98178.72;;;18.79;79.08
13312;BME280;34033;48.672;9.376;2023-04-28T12:33:56;98178.56;;;18.70;80.35
13312;BME280;34033;48.672;9.376;2023-04-28T12:36:22;98183.44;;;18.69;80.43
13312;BME280;34033;48.672;9.376;2023-04-28T12:38:47;98179.00;;;18.56;80.53
13312;BME280;34033;48.672;9.376;2023-04-28T12:41:13;98184.38;;;18.38;79.99
13312;BME280;34033;48.672;9.376;2023-04-28T12:43:39;98186.88;;;18.36;79.39
13312;BME280;34033;48.672;9.376;2023-04-28T12:46:05;98182.56;;;18.44;79.72
13312;BME280;34033;48.672;9.376;2023-04-28T12:48:32;98187.94;;;18.54;79.21
13312;BME280;34033;48.672;9.376;2023-04-28T12:50:59;98189.09;;;18.69;78.18
13312;BME280;34033;48.672;9.376;2023-04-28T12:53:24;98184.69;;;18.81;76.61
13312;BME280;34033;48.672;9.376;2023-04-28T12:55:49;98187.66;;;18.90;76.09
13312;BME280;34033;48.672;9.376;2023-04-28T12:58:15;98178.13;;;18.97;75.16
13312;BME280;34033;48.672;9.376;2023-04-28T13:00:42;98174.97;;;19.07;75.19
13312;BME280;34033;48.672;9.376;2023-04-28T13:03:07;98169.72;;;19.18;74.28
13312;BME280;34033;48.672;9.376;2023-04-28T13:05:32;98162.25;;;19.25;74.12
13312;BME280;34033;48.672;9.376;2023-04-28T13:07:59;98169.28;;;19.33;72.90
13312;BME280;34033;48.672;9.376;2023-04-28T13:10:24;98167.66;;;19.44;72.78
13312;BME280;34033;48.672;9.376;2023-04-28T13:12:50;98154.47;;;19.63;72.23
13312;BME280;34033;48.672;9.376;2023-04-28T13:15:16;98161.66;;;19.89;71.68
13312;BME280;34033;48.672;9.376;2023-04-28T13:17:41;98150.06;;;20.18;70.64
13312;BME280;34033;48.672;9.376;2023-04-28T13:20:07;98154.22;;;20.26;69.18
13312;BME280;34033;48.672;9.376;2023-04-28T13:22:33;98157.97;;;20.23;68.27
13312;BME280;34033;48.672;9.376;2023-04-28T13:24:58;98144.66;;;20.11;68.48
13312;BME280;34033;48.672;9.376;2023-04-28T13:27:23;98141.53;;;19.96;68.22
13312;BME280;34033;48.672;9.376;2023-04-28T13:29:49;98142.50;;;19.46;68.39